sensor_id;sensor_type;location;lat;lon;timestamp;pressure;altitude;pressure_sealevel;temperature;humidity
7050;BME280;22263;52.260;10.548;2022-09-30T00:00:41;99719.78;;;8.09;100.00
7050;BME280;22263;52.260;10.548;2022-09-30T00:03:14;99719.41;;;8.10;100.00
7050;BME280;22263;52.260;10.548;2022-09-30T00:05:43;99729.22;;;8.11;100.00
7050;BME280;22263;52.260;10.548;2022-09-30T00:08:13;99725.31;;;8.12;100.00
7050;BME280;22263;52.260;10.548;2022-09-30T00:10:43;99723.25;;;8.02;100.00
7050;BME280;22263;52.260;10.548;2022-09-30T00:13:13;99733.47;;;8.02;100.00
7050;BME280;22263;52.260;10.548;2022-09-30T00:15:45;99734.72;;;8.08;100.00
7050;BME280;22263;52.260;10.548;2022-09-30T00:18:17;99737.81;;;8.06;100.00
7050;BME280;22263;52.260;10.548;2022-09-30T00:20:47;99730.34;;;8.03;100.00
7050;BME280;22263;52.260;10.548;2022-09-30T00:23:18;99737.47;;;8.08;100.00
7050;BME280;22263;52.260;10.548;2022-09-30T00:25:49;99728.81;;;8.09;100.00
7050;BME280;22263;52.260;10.548;2022-09-30T00:28:18;99729.63;;;8.10;100.00
7050;BME280;22263;52.260;10.548;2022-09-30T00:30:48;99735.94;;;8.10;100.00
7050;BME280;22263;52.260;10.548;2022-09-30T00:33:20;99736.63;;;8.04;100.00
7050;BME280;22263;52.260;10.548;2022-09-30T00:35:50;99740.16;;;8.01;100.00
7050;BME280;22263;52.260;10.548;2022-09-30T00:38:19;99736.63;;;8.00;100.00
7050;BME280;22263;52.260;10.548;2022-09-30T00:40:49;99737.34;;;7.97;100.00
7050;BME280;22263;52.260;10.548;2022-09-30T00:43:37;99738.91;;;7.95;100.00
7050;BME280;22263;52.260;10.548;2022-09-30T00:46:15;99735.34;;;7.91;100.00
7050;BME280;22263;52.260;10.548;2022-09-30T00:48:51;99734.56;;;7.90;100.00
7050;BME280;22263;52.260;10.548;2022-09-30T00:51:27;99739.97;;;7.83;100.00
7050;BME280;22263;52.260;10.548;2022-09-30T00:54:00;99734.44;;;7.79;100.00
7050;BME280;22263;52.260;10.548;2022-09-30T00:56:34;99737.19;;;7.79;100.00
7050;BME280;22263;52.260;10.548;2022-09-30T00:59:08;99738.75;;;7.77;100.00
7050;BME280;22263;52.260;10.548;2022-09-30T01:01:40;99736.38;;;7.75;100.00
7050;BME280;22263;52.260;10.548;2022-09-30T01:04:14;99740.31;;;7.78;100.00
7050;BME280;22263;52.260;10.548;2022-09-30T01:06:46;99746.13;;;7.69;100.00
7050;BME280;22263;52.260;10.548;2022-09-30T01:09:17;99746.09;;;7.66;100.00
7050;BME280;22263;52.260;10.548;2022-09-30T01:11:48;99737.38;;;7.60;100.00
7050;BME280;22263;52.260;10.548;2022-09-30T01:14:21;99744.88;;;7.63;100.00
7050;BME280;22263;52.260;10.548;2022-09-30T01:17:02;99739.31;;;7.56;100.00
7050;BME280;22263;52.260;10.548;2022-09-30T01:20:05;99746.78;;;7.56;100.00
7050;BME280;22263;52.260;10.548;2022-09-30T01:22:46;99745.22;;;7.58;100.00
7050;BME280;22263;52.260;10.548;2022-09-30T01:25:46;99753.03;;;7.53;100.00
7050;BME280;22263;52.260;10.548;2022-09-30T01:31:28;99742.75;;;7.46;100.00
7050;BME280;22263;52.260;10.548;2022-09-30T01:34:06;99748.56;;;7.41;100.00
7050;BME280;22263;52.260;10.548;2022-09-30T01:36:48;99748.94;;;7.39;100.00
7050;BME280;22263;52.260;10.548;2022-09-30T01:39:27;99746.94;;;7.36;100.00
7050;BME280;22263;52.260;10.548;2022-09-30T01:42:07;99751.28;;;7.37;100.00
7050;BME280;22263;52.260;10.548;2022-09-30T01:44:43;99753.31;;;7.44;100.00
7050;BME280;22263;52.260;10.548;2022-09-30T01:47:24;99745.47;;;7.42;100.00
7050;BME280;22263;52.260;10.548;2022-09-30T01:49:59;99751.81;;;7.50;100.00
7050;BME280;22263;52.260;10.548;2022-09-30T01:52:36;99746.69;;;7.49;100.00
7050;BME280;22263;52.260;10.548;2022-09-30T01:55:15;99755.69;;;7.45;100.00
7050;BME280;22263;52.260;10.548;2022-09-30T01:57:52;99752.53;;;7.43;100.00
7050;BME280;22263;52.260;10.548;2022-09-30T02:00:24;99760.38;;;7.41;100.00
7050;BME280;22263;52.260;10.548;2022-09-30T02:03:01;99758.31;;;7.35;100.00
7050;BME280;22263;52.260;10.548;2022-09-30T02:05:38;99767.31;;;7.32;100.00
7050;BME280;22263;52.260;10.548;2022-09-30T02:08:13;99763.34;;;7.29;100.00
7050;BME280;22263;52.260;10.548;2022-09-30T02:10:47;99771.94;;;7.24;100.00
7050;BME280;22263;52.260;10.548;2022-09-30T02:13:26;99772.72;;;7.25;100.00
7050;BME280;22263;52.260;10.548;2022-09-30T02:16:01;99775.03;;;7.19;100.00
7050;BME280;22263;52.260;10.548;2022-09-30T02:18:44;99773.84;;;7.20;100.00
7050;BME280;22263;52.260;10.548;2022-09-30T02:21:19;99766.06;;;7.26;100.00
7050;BME280;22263;52.260;10.548;2022-09-30T02:23:53;99763.28;;;7.22;100.00
7050;BME280;22263;52.260;10.548;2022-09-30T02:26:28;99764.81;;;7.20;100.00
7050;BME280;22263;52.260;10.548;2022-09-30T02:29:02;99769.78;;;7.11;100.00
7050;BME280;22263;52.260;10.548;2022-09-30T02:31:36;99772.13;;;7.09;100.00
7050;BME280;22263;52.260;10.548;2022-09-30T02:34:12;99776.56;;;7.17;100.00
7050;BME280;22263;52.260;10.548;2022-09-30T02:36:47;99769.88;;;7.14;100.00
7050;BME280;22263;52.260;10.548;2022-09-30T02:39:24;99769.09;;;7.17;100.00
7050;BME280;22263;52.260;10.548;2022-09-30T02:42:00;99771.03;;;7.13;100.00
7050;BME280;22263;52.260;10.548;2022-09-30T02:44:34;99769.78;;;7.11;100.00
7050;BME280;22263;52.260;10.548;2022-09-30T02:47:11;99767.38;;;7.06;100.00
7050;BME280;22263;52.260;10.548;2022-09-30T02:49:51;99771.31;;;7.05;100.00
7050;BME280;22263;52.260;10.548;2022-09-30T02:52:30;99758.25;;;6.98;100.00
7050;BME280;22263;52.260;10.548;2022-09-30T02:55:13;99758.88;;;6.88;100.00
7050;BME280;22263;52.260;10.548;2022-09-30T02:57:55;99765.81;;;6.78;100.00
7050;BME280;22263;52.260;10.548;2022-09-30T03:00:28;99777.59;;;6.79;100.00
7050;BME280;22263;52.260;10.548;2022-09-30T03:03:00;99779.72;;;6.89;100.00
7050;BME280;22263;52.260;10.548;2022-09-30T03:05:34;99777.44;;;6.94;100.00
7050;BME280;22263;52.260;10.548;2022-09-30T03:08:04;99778.50;;;6.86;100.00
7050;BME280;22263;52.260;10.548;2022-09-30T03:10:34;99780.09;;;6.87;100.00
7050;BME280;22263;52.260;10.548;2022-09-30T03:13:34;99782.84;;;6.87;100.00
7050;BME280;22263;52.260;10.548;2022-09-30T03:16:17;99786.28;;;6.81;100.00
7050;BME280;22263;52.260;10.548;2022-09-30T03:19:00;99794.84;;;6.76;100.00
7050;BME280;22263;52.260;10.548;2022-09-30T03:21:48;99788.47;;;6.72;100.00
7050;BME280;22263;52.260;10.548;2022-09-30T03:24:46;99794.72;;;6.69;100.00
7050;BME280;22263;52.260;10.548;2022-09-30T03:27:26;99799.78;;;6.67;100.00
7050;BME280;22263;52.260;10.548;2022-09-30T03:30:02;99805.03;;;6.75;100.00
7050;BME280;22263;52.260;10.548;2022-09-30T03:32:46;99804.56;;;6.70;100.00
7050;BME280;22263;52.260;10.548;2022-09-30T03:35:26;99808.94;;;6.74;100.00
7050;BME280;22263;52.260;10.548;2022-09-30T03:38:07;99813.69;;;6.77;100.00
7050;BME280;22263;52.260;10.548;2022-09-30T03:40:44;99814.16;;;6.83;100.00
7050;BME280;22263;52.260;10.548;2022-09-30T03:43:23;99808.19;;;6.77;100.00
7050;BME280;22263;52.260;10.548;2022-09-30T03:45:59;99815.88;;;6.65;100.00
7050;BME280;22263;52.260;10.548;2022-09-30T03:48:32;99816.91;;;6.56;100.00
7050;BME280;22263;52.260;10.548;2022-09-30T03:51:03;99827.50;;;6.58;100.00
7050;BME280;22263;52.260;10.548;2022-09-30T03:53:39;99840.03;;;6.55;100.00
7050;BME280;22263;52.260;10.548;2022-09-30T03:56:09;99828.66;;;6.57;100.00
7050;BME280;22263;52.260;10.548;2022-09-30T03:58:41;99841.56;;;6.53;100.00
7050;BME280;22263;52.260;10.548;2022-09-30T04:01:17;99830.25;;;6.58;100.00
7050;BME280;22263;52.260;10.548;2022-09-30T04:03:48;99836.16;;;6.56;100.00
7050;BME280;22263;52.260;10.548;2022-09-30T04:06:19;99831.06;;;6.58;100.00
7050;BME280;22263;52.260;10.548;2022-09-30T04:08:51;99837.00;;;6.61;100.00
7050;BME280;22263;52.260;10.548;2022-09-30T04:11:22;99837.78;;;6.61;100.00
7050;BME280;22263;52.260;10.548;2022-09-30T04:13:51;99830.34;;;6.62;100.00
7050;BME280;22263;52.260;10.548;2022-09-30T04:16:21;99821.31;;;6.61;100.00
7050;BME280;22263;52.260;10.548;2022-09-30T04:18:50;99818.25;;;6.66;100.00
7050;BME280;22263;52.260;10.548;2022-09-30T04:21:22;99835.44;;;6.63;100.00
7050;BME280;22263;52.260;10.548;2022-09-30T04:23:56;99843.19;;;6.57;100.00
7050;BME280;22263;52.260;10.548;2022-09-30T04:26:26;99850.66;;;6.57;100.00
7050;BME280;22263;52.260;10.548;2022-09-30T04:28:55;99846.03;;;6.61;100.00
7050;BME280;22263;52.260;10.548;2022-09-30T04:31:25;99853.03;;;6.58;100.00
7050;BME280;22263;52.260;10.548;2022-09-30T04:33:55;99845.91;;;6.54;100.00
7050;BME280;22263;52.260;10.548;2022-09-30T04:36:25;99845.84;;;6.50;100.00
7050;BME280;22263;52.260;10.548;2022-09-30T04:38:57;99847.78;;;6.50;100.00
7050;BME280;22263;52.260;10.548;2022-09-30T04:41:27;99854.84;;;6.47;100.00
7050;BME280;22263;52.260;10.548;2022-09-30T04:43:57;99861.09;;;6.48;100.00
7050;BME280;22263;52.260;10.548;2022-09-30T04:46:32;99867.31;;;6.45;100.00
7050;BME280;22263;52.260;10.548;2022-09-30T04:49:03;99870.81;;;6.42;100.00
7050;BME280;22263;52.260;10.548;2022-09-30T04:51:35;99869.63;;;6.43;100.00
7050;BME280;22263;52.260;10.548;2022-09-30T04:54:12;99861.72;;;6.38;100.00
7050;BME280;22263;52.260;10.548;2022-09-30T04:56:42;99870.19;;;6.29;100.00
7050;BME280;22263;52.260;10.548;2022-09-30T04:59:12;99877.16;;;6.23;100.00
7050;BME280;22263;52.260;10.548;2022-09-30T05:01:41;99885.38;;;6.23;100.00
7050;BME280;22263;52.260;10.548;2022-09-30T05:04:11;99888.19;;;6.27;100.00
7050;BME280;22263;52.260;10.548;2022-09-30T05:06:41;99892.88;;;6.26;100.00
7050;BME280;22263;52.260;10.548;2022-09-30T05:09:13;99893.69;;;6.27;100.00
7050;BME280;22263;52.260;10.548;2022-09-30T05:11:43;99897.72;;;6.33;100.00
7050;BME280;22263;52.260;10.548;2022-09-30T05:14:12;99894.59;;;6.34;100.00
7050;BME280;22263;52.260;10.548;2022-09-30T05:16:42;99891.78;;;6.31;100.00
7050;BME280;22263;52.260;10.548;2022-09-30T05:19:12;99896.47;;;6.30;100.00
7050;BME280;22263;52.260;10.548;2022-09-30T05:21:41;99900.88;;;6.35;100.00
7050;BME280;22263;52.260;10.548;2022-09-30T05:24:15;99893.44;;;6.35;100.00
7050;BME280;22263;52.260;10.548;2022-09-30T05:26:44;99899.13;;;6.23;100.00
7050;BME280;22263;52.260;10.548;2022-09-30T05:29:14;99896.47;;;6.30;100.00
7050;BME280;22263;52.260;10.548;2022-09-30T05:31:43;99902.53;;;6.39;100.00
7050;BME280;22263;52.260;10.548;2022-09-30T05:34:13;99901.03;;;6.42;100.00
7050;BME280;22263;52.260;10.548;2022-09-30T05:36:43;99909.47;;;6.33;100.00
7050;BME280;22263;52.260;10.548;2022-09-30T05:39:15;99920.47;;;6.33;100.00
7050;BME280;22263;52.260;10.548;2022-09-30T05:41:45;99917.91;;;6.44;100.00
7050;BME280;22263;52.260;10.548;2022-09-30T05:44:15;99919.94;;;6.47;100.00
7050;BME280;22263;52.260;10.548;2022-09-30T05:46:44;99933.28;;;6.48;100.00
7050;BME280;22263;52.260;10.548;2022-09-30T05:49:14;99939.03;;;6.40;100.00
7050;BME280;22263;52.260;10.548;2022-09-30T05:51:44;99938.50;;;6.53;100.00
7050;BME280;22263;52.260;10.548;2022-09-30T05:54:16;99942.47;;;6.56;100.00
7050;BME280;22263;52.260;10.548;2022-09-30T05:56:45;99948.72;;;6.76;100.00
7050;BME280;22263;52.260;10.548;2022-09-30T05:59:15;99956.03;;;6.91;100.00
7050;BME280;22263;52.260;10.548;2022-09-30T06:01:45;99954.06;;;7.14;100.00
7050;BME280;22263;52.260;10.548;2022-09-30T06:04:15;99951.28;;;7.37;100.00
7050;BME280;22263;52.260;10.548;2022-09-30T06:06:45;99949.63;;;7.59;100.00
7050;BME280;22263;52.260;10.548;2022-09-30T06:09:17;99938.41;;;7.71;100.00
7050;BME280;22263;52.260;10.548;2022-09-30T06:11:46;99932.31;;;7.88;100.00
7050;BME280;22263;52.260;10.548;2022-09-30T06:14:16;99934.00;;;7.96;100.00
7050;BME280;22263;52.260;10.548;2022-09-30T06:16:48;99930.66;;;8.13;100.00
7050;BME280;22263;52.260;10.548;2022-09-30T06:19:17;99932.94;;;8.38;100.00
7050;BME280;22263;52.260;10.548;2022-09-30T06:21:47;99935.50;;;8.57;100.00
7050;BME280;22263;52.260;10.548;2022-09-30T06:24:20;99934.94;;;8.78;100.00
7050;BME280;22263;52.260;10.548;2022-09-30T06:26:49;99933.50;;;8.98;100.00
7050;BME280;22263;52.260;10.548;2022-09-30T06:29:19;99935.19;;;9.09;100.00
7050;BME280;22263;52.260;10.548;2022-09-30T06:31:49;99936.34;;;9.08;100.00
7050;BME280;22263;52.260;10.548;2022-09-30T06:34:19;99943.69;;;9.38;100.00
7050;BME280;22263;52.260;10.548;2022-09-30T06:36:49;99937.09;;;9.60;100.00
7050;BME280;22263;52.260;10.548;2022-09-30T06:39:22;99935.28;;;9.82;100.00
7050;BME280;22263;52.260;10.548;2022-09-30T06:41:53;99944.06;;;10.05;100.00
7050;BME280;22263;52.260;10.548;2022-09-30T06:44:23;99946.16;;;10.29;100.00
7050;BME280;22263;52.260;10.548;2022-09-30T06:46:52;99945.34;;;10.29;100.00
7050;BME280;22263;52.260;10.548;2022-09-30T06:49:25;99948.56;;;10.45;100.00
7050;BME280;22263;52.260;10.548;2022-09-30T06:52:13;99952.56;;;10.72;100.00
7050;BME280;22263;52.260;10.548;2022-09-30T06:54:45;99942.72;;;11.07;100.00
7050;BME280;22263;52.260;10.548;2022-09-30T06:57:16;99951.03;;;11.07;100.00
7050;BME280;22263;52.260;10.548;2022-09-30T06:59:48;99956.56;;;11.17;100.00
7050;BME280;22263;52.260;10.548;2022-09-30T07:02:18;99957.31;;;11.32;100.00
7050;BME280;22263;52.260;10.548;2022-09-30T07:04:48;99953.00;;;11.24;100.00
7050;BME280;22263;52.260;10.548;2022-09-30T07:07:17;99958.13;;;11.50;100.00
7050;BME280;22263;52.260;10.548;2022-09-30T07:09:50;99971.94;;;11.57;100.00
7050;BME280;22263;52.260;10.548;2022-09-30T07:12:25;99961.56;;;12.04;100.00
7050;BME280;22263;52.260;10.548;2022-09-30T07:14:55;99965.38;;;12.38;100.00
7050;BME280;22263;52.260;10.548;2022-09-30T07:17:25;99962.59;;;12.45;100.00
7050;BME280;22263;52.260;10.548;2022-09-30T07:19:55;99963.34;;;12.53;100.00
7050;BME280;22263;52.260;10.548;2022-09-30T07:22:25;99964.72;;;12.86;100.00
7050;BME280;22263;52.260;10.548;2022-09-30T07:25:03;99970.47;;;13.16;100.00
7050;BME280;22263;52.260;10.548;2022-09-30T07:27:34;99966.19;;;13.52;100.00
7050;BME280;22263;52.260;10.548;2022-09-30T07:30:05;99976.19;;;13.43;100.00
7050;BME280;22263;52.260;10.548;2022-09-30T07:32:43;99979.31;;;13.52;100.00
7050;BME280;22263;52.260;10.548;2022-09-30T07:35:13;99977.41;;;13.83;100.00
7050;BME280;22263;52.260;10.548;2022-09-30T07:37:42;99981.91;;;14.07;100.00
7050;BME280;22263;52.260;10.548;2022-09-30T07:40:15;99976.91;;;14.25;100.00
7050;BME280;22263;52.260;10.548;2022-09-30T07:42:45;99980.38;;;14.36;100.00
7050;BME280;22263;52.260;10.548;2022-09-30T07:45:14;99982.34;;;14.70;100.00
7050;BME280;22263;52.260;10.548;2022-09-30T07:47:45;99982.84;;;14.88;100.00
7050;BME280;22263;52.260;10.548;2022-09-30T07:50:19;99982.22;;;15.04;100.00
7050;BME280;22263;52.260;10.548;2022-09-30T07:52:48;99989.34;;;15.78;100.00
7050;BME280;22263;52.260;10.548;2022-09-30T07:55:20;99987.84;;;15.74;100.00
7050;BME280;22263;52.260;10.548;2022-09-30T07:57:50;99986.81;;;15.64;100.00
7050;BME280;22263;52.260;10.548;2022-09-30T08:00:20;99987.34;;;16.22;100.00
7050;BME280;22263;52.260;10.548;2022-09-30T08:03:08;99994.34;;;16.69;100.00
7050;BME280;22263;52.260;10.548;2022-09-30T08:05:38;99992.53;;;16.79;100.00
7050;BME280;22263;52.260;10.548;2022-09-30T08:08:11;99994.78;;;17.20;100.00
7050;BME280;22263;52.260;10.548;2022-09-30T08:10:43;99992.69;;;18.17;93.52
7050;BME280;22263;52.260;10.548;2022-09-30T08:13:13;99993.56;;;17.53;93.36
7050;BME280;22263;52.260;10.548;2022-09-30T08:15:42;99994.75;;;18.42;90.48
7050;BME280;22263;52.260;10.548;2022-09-30T08:18:12;99982.88;;;18.38;90.25
7050;BME280;22263;52.260;10.548;2022-09-30T08:20:41;99976.13;;;19.53;79.57
7050;BME280;22263;52.260;10.548;2022-09-30T08:23:11;99984.25;;;19.73;78.69
7050;BME280;22263;52.260;10.548;2022-09-30T08:25:43;99989.25;;;20.47;72.02
7050;BME280;22263;52.260;10.548;2022-09-30T08:28:13;99995.56;;;20.60;70.26
7050;BME280;22263;52.260;10.548;2022-09-30T08:30:43;99996.50;;;20.87;64.80
7050;BME280;22263;52.260;10.548;2022-09-30T08:33:13;99997.13;;;21.13;64.30
7050;BME280;22263;52.260;10.548;2022-09-30T08:35:43;99993.88;;;20.40;72.70
7050;BME280;22263;52.260;10.548;2022-09-30T08:38:12;99995.16;;;21.01;68.16
7050;BME280;22263;52.260;10.548;2022-09-30T08:40:53;99997.78;;;21.94;61.71
7050;BME280;22263;52.260;10.548;2022-09-30T08:43:30;99998.28;;;22.29;59.54
7050;BME280;22263;52.260;10.548;2022-09-30T08:46:13;100007.28;;;21.87;60.45
7050;BME280;22263;52.260;10.548;2022-09-30T08:48:50;100011.81;;;21.57;59.66
7050;BME280;22263;52.260;10.548;2022-09-30T08:51:29;100009.13;;;20.83;63.78
7050;BME280;22263;52.260;10.548;2022-09-30T08:54:02;100013.69;;;21.69;61.82
7050;BME280;22263;52.260;10.548;2022-09-30T08:56:36;100012.66;;;22.31;56.83
7050;BME280;22263;52.260;10.548;2022-09-30T08:59:13;100017.38;;;22.25;57.86
7050;BME280;22263;52.260;10.548;2022-09-30T09:01:50;100013.41;;;23.19;53.00
7050;BME280;22263;52.260;10.548;2022-09-30T09:04:21;100013.84;;;22.84;53.92
7050;BME280;22263;52.260;10.548;2022-09-30T09:06:57;100015.66;;;23.06;53.79
7050;BME280;22263;52.260;10.548;2022-09-30T09:09:47;100018.63;;;23.11;52.13
7050;BME280;22263;52.260;10.548;2022-09-30T09:12:32;100019.97;;;23.25;49.91
7050;BME280;22263;52.260;10.548;2022-09-30T09:15:22;100022.69;;;22.32;52.86
7050;BME280;22263;52.260;10.548;2022-09-30T09:18:22;100024.06;;;22.45;52.40
7050;BME280;22263;52.260;10.548;2022-09-30T09:20:58;100019.41;;;23.12;50.75
7050;BME280;22263;52.260;10.548;2022-09-30T09:23:30;100025.19;;;22.30;53.06
7050;BME280;22263;52.260;10.548;2022-09-30T09:26:02;100020.72;;;23.01;51.37
7050;BME280;22263;52.260;10.548;2022-09-30T09:28:39;100019.63;;;22.90;51.42
7050;BME280;22263;52.260;10.548;2022-09-30T09:31:15;100016.88;;;23.14;51.62
7050;BME280;22263;52.260;10.548;2022-09-30T09:33:45;100016.56;;;23.21;51.66
7050;BME280;22263;52.260;10.548;2022-09-30T09:36:25;100005.88;;;23.81;48.59
7050;BME280;22263;52.260;10.548;2022-09-30T09:39:10;100011.88;;;23.51;51.81
7050;BME280;22263;52.260;10.548;2022-09-30T09:41:50;100008.69;;;22.74;52.10
7050;BME280;22263;52.260;10.548;2022-09-30T09:44:29;100016.09;;;23.13;50.15
7050;BME280;22263;52.260;10.548;2022-09-30T09:47:04;100012.94;;;24.24;47.59
7050;BME280;22263;52.260;10.548;2022-09-30T09:49:41;100012.13;;;22.87;50.18
7050;BME280;22263;52.260;10.548;2022-09-30T09:52:37;100015.94;;;22.56;53.65
7050;BME280;22263;52.260;10.548;2022-09-30T09:55:13;100008.59;;;23.43;51.60
7050;BME280;22263;52.260;10.548;2022-09-30T09:57:45;100002.25;;;22.91;50.56
7050;BME280;22263;52.260;10.548;2022-09-30T10:00:25;100008.22;;;23.59;48.62
7050;BME280;22263;52.260;10.548;2022-09-30T10:03:23;100005.69;;;23.28;49.77
7050;BME280;22263;52.260;10.548;2022-09-30T10:06:05;100001.19;;;24.85;47.15
7050;BME280;22263;52.260;10.548;2022-09-30T10:08:36;100000.28;;;24.35;48.66
7050;BME280;22263;52.260;10.548;2022-09-30T10:11:16;99994.84;;;24.46;48.43
7050;BME280;22263;52.260;10.548;2022-09-30T10:13:49;100000.31;;;23.07;52.16
7050;BME280;22263;52.260;10.548;2022-09-30T10:16:31;99993.38;;;24.36;48.33
7050;BME280;22263;52.260;10.548;2022-09-30T10:19:02;100001.75;;;22.93;52.24
7050;BME280;22263;52.260;10.548;2022-09-30T10:21:35;100001.19;;;24.02;47.30
7050;BME280;22263;52.260;10.548;2022-09-30T10:24:18;100012.03;;;22.27;52.80
7050;BME280;22263;52.260;10.548;2022-09-30T10:26:48;100003.91;;;22.20;53.72
7050;BME280;22263;52.260;10.548;2022-09-30T10:29:26;100015.78;;;21.29;59.09
7050;BME280;22263;52.260;10.548;2022-09-30T10:32:01;100012.19;;;20.67;61.75
7050;BME280;22263;52.260;10.548;2022-09-30T10:34:32;100013.16;;;19.35;69.32
7050;BME280;22263;52.260;10.548;2022-09-30T10:37:07;100016.34;;;18.70;76.75
7050;BME280;22263;52.260;10.548;2022-09-30T10:39:40;100015.56;;;18.57;80.94
7050;BME280;22263;52.260;10.548;2022-09-30T10:42:17;100012.47;;;18.52;78.93
7050;BME280;22263;52.260;10.548;2022-09-30T10:44:54;100013.38;;;17.91;80.12
7050;BME280;22263;52.260;10.548;2022-09-30T10:47:28;100022.25;;;17.73;84.26
7050;BME280;22263;52.260;10.548;2022-09-30T10:50:04;100020.50;;;17.63;87.16
7050;BME280;22263;52.260;10.548;2022-09-30T10:52:37;100019.31;;;17.28;90.56
7050;BME280;22263;52.260;10.548;2022-09-30T10:55:25;100007.53;;;17.53;88.86
7050;BME280;22263;52.260;10.548;2022-09-30T10:57:59;100005.75;;;18.08;82.51
7050;BME280;22263;52.260;10.548;2022-09-30T11:00:30;100001.53;;;19.84;67.41
7050;BME280;22263;52.260;10.548;2022-09-30T11:03:09;100005.16;;;21.02;55.83
7050;BME280;22263;52.260;10.548;2022-09-30T11:05:42;100000.56;;;21.85;50.99
7050;BME280;22263;52.260;10.548;2022-09-30T11:08:17;99998.56;;;22.49;49.29
7050;BME280;22263;52.260;10.548;2022-09-30T11:10:55;99995.09;;;22.72;48.99
7050;BME280;22263;52.260;10.548;2022-09-30T11:13:36;99996.50;;;22.49;47.99
7050;BME280;22263;52.260;10.548;2022-09-30T11:16:14;99991.88;;;23.87;46.71
7050;BME280;22263;52.260;10.548;2022-09-30T11:18:52;99992.59;;;23.73;44.65
7050;BME280;22263;52.260;10.548;2022-09-30T11:21:28;99999.75;;;23.59;45.36
7050;BME280;22263;52.260;10.548;2022-09-30T11:24:01;99996.09;;;23.35;46.12
7050;BME280;22263;52.260;10.548;2022-09-30T11:26:39;99991.00;;;22.64;47.59
7050;BME280;22263;52.260;10.548;2022-09-30T11:32:09;99992.50;;;24.44;42.93
7050;BME280;22263;52.260;10.548;2022-09-30T11:34:51;99988.03;;;24.14;42.62
7050;BME280;22263;52.260;10.548;2022-09-30T11:37:30;99988.53;;;23.41;44.57
7050;BME280;22263;52.260;10.548;2022-09-30T11:40:30;99994.31;;;22.53;47.39
7050;BME280;22263;52.260;10.548;2022-09-30T11:43:12;99986.19;;;23.72;43.94
7050;BME280;22263;52.260;10.548;2022-09-30T11:45:55;99988.03;;;22.77;46.75
7050;BME280;22263;52.260;10.548;2022-09-30T11:48:40;99996.88;;;23.44;44.48
7050;BME280;22263;52.260;10.548;2022-09-30T11:51:24;99995.06;;;23.23;44.36
7050;BME280;22263;52.260;10.548;2022-09-30T11:54:08;99990.72;;;23.46;44.03
7050;BME280;22263;52.260;10.548;2022-09-30T11:56:48;99992.34;;;22.96;45.70
7050;BME280;22263;52.260;10.548;2022-09-30T11:59:24;99990.94;;;23.00;46.02
7050;BME280;22263;52.260;10.548;2022-09-30T12:01:57;99989.81;;;22.98;46.40
7050;BME280;22263;52.260;10.548;2022-09-30T12:04:33;99995.13;;;22.54;45.55
7050;BME280;22263;52.260;10.548;2022-09-30T12:07:11;99995.69;;;22.67;45.35
7050;BME280;22263;52.260;10.548;2022-09-30T12:09:45;99998.28;;;22.98;44.96
7050;BME280;22263;52.260;10.548;2022-09-30T12:12:17;100004.75;;;22.89;46.01
7050;BME280;22263;52.260;10.548;2022-09-30T12:14:49;99994.00;;;23.77;43.84
7050;BME280;22263;52.260;10.548;2022-09-30T12:17:24;99996.28;;;23.88;43.40
7050;BME280;22263;52.260;10.548;2022-09-30T12:20:02;99999.53;;;23.06;45.15
7050;BME280;22263;52.260;10.548;2022-09-30T12:22:40;99993.31;;;23.82;43.46
7050;BME280;22263;52.260;10.548;2022-09-30T12:25:12;99995.59;;;23.69;43.38
7050;BME280;22263;52.260;10.548;2022-09-30T12:27:45;99993.63;;;23.28;42.35
7050;BME280;22263;52.260;10.548;2022-09-30T12:30:20;99985.50;;;23.77;41.57
7050;BME280;22263;52.260;10.548;2022-09-30T12:36:20;99990.53;;;24.21;41.57
7050;BME280;22263;52.260;10.548;2022-09-30T12:42:37;99985.66;;;24.21;42.25
7050;BME280;22263;52.260;10.548;2022-09-30T12:45:32;99986.75;;;24.53;40.80
7050;BME280;22263;52.260;10.548;2022-09-30T12:48:07;99980.84;;;23.89;40.46
7050;BME280;22263;52.260;10.548;2022-09-30T12:50:46;99985.56;;;23.68;40.63
7050;BME280;22263;52.260;10.548;2022-09-30T12:53:24;99990.00;;;22.94;41.73
7050;BME280;22263;52.260;10.548;2022-09-30T12:56:01;99976.59;;;22.62;44.05
7050;BME280;22263;52.260;10.548;2022-09-30T12:58:37;99975.91;;;23.27;43.77
7050;BME280;22263;52.260;10.548;2022-09-30T13:01:13;99965.56;;;23.57;42.27
7050;BME280;22263;52.260;10.548;2022-09-30T13:07:05;99978.44;;;22.92;42.16
7050;BME280;22263;52.260;10.548;2022-09-30T13:09:37;99973.78;;;22.71;41.96
7050;BME280;22263;52.260;10.548;2022-09-30T13:12:26;99967.25;;;23.64;41.59
7050;BME280;22263;52.260;10.548;2022-09-30T13:15:37;99968.19;;;23.61;40.07
7050;BME280;22263;52.260;10.548;2022-09-30T13:21:19;99962.50;;;24.08;40.89
7050;BME280;22263;52.260;10.548;2022-09-30T13:23:51;99969.88;;;24.29;40.77
7050;BME280;22263;52.260;10.548;2022-09-30T13:27:05;99968.31;;;23.66;41.28
7050;BME280;22263;52.260;10.548;2022-09-30T13:29:36;99960.44;;;23.14;41.86
7050;BME280;22263;52.260;10.548;2022-09-30T13:32:35;99966.59;;;23.45;40.20
7050;BME280;22263;52.260;10.548;2022-09-30T13:35:29;99965.03;;;23.11;41.66
7050;BME280;22263;52.260;10.548;2022-09-30T13:38:17;99955.66;;;22.54;41.75
7050;BME280;22263;52.260;10.548;2022-09-30T13:40:53;99956.19;;;22.85;43.10
7050;BME280;22263;52.260;10.548;2022-09-30T13:43:32;99962.13;;;22.18;43.27
7050;BME280;22263;52.260;10.548;2022-09-30T13:46:06;99963.13;;;22.75;43.34
7050;BME280;22263;52.260;10.548;2022-09-30T13:48:48;99958.97;;;22.43;43.67
7050;BME280;22263;52.260;10.548;2022-09-30T13:51:21;99951.81;;;22.84;43.39
7050;BME280;22263;52.260;10.548;2022-09-30T13:53:55;99952.19;;;22.50;43.72
7050;BME280;22263;52.260;10.548;2022-09-30T13:56:29;99959.63;;;22.02;44.42
7050;BME280;22263;52.260;10.548;2022-09-30T13:59:15;99957.59;;;22.02;45.15